sensor_id;sensor_type;location;lat;lon;timestamp;P1;durP1;ratioP1;P2;durP2;ratioP2
52380;SDS011;38310;52.796;6.942;2023-02-28T00:00:22;17.10;;;6.90;;
52380;SDS011;38310;52.796;6.942;2023-02-28T00:02:49;11.52;;;6.63;;
52380;SDS011;38310;52.796;6.942;2023-02-28T00:05:16;11.82;;;6.93;;
52380;SDS011;38310;52.796;6.942;2023-02-28T00:07:44;9.45;;;7.03;;
52380;SDS011;38310;52.796;6.942;2023-02-28T00:10:11;11.85;;;7.30;;
52380;SDS011;38310;52.796;6.942;2023-02-28T00:12:39;11.00;;;6.85;;
52380;SDS011;38310;52.796;6.942;2023-02-28T00:15:07;10.70;;;7.38;;
52380;SDS011;38310;52.796;6.942;2023-02-28T00:17:35;13.13;;;7.20;;
52380;SDS011;38310;52.796;6.942;2023-02-28T00:20:02;17.92;;;8.27;;
52380;SDS011;38310;52.796;6.942;2023-02-28T00:22:29;7.97;;;6.35;;
52380;SDS011;38310;52.796;6.942;2023-02-28T00:24:55;13.88;;;7.07;;
52380;SDS011;38310;52.796;6.942;2023-02-28T00:27:21;8.80;;;6.95;;
52380;SDS011;38310;52.796;6.942;2023-02-28T00:29:47;10.35;;;6.35;;
52380;SDS011;38310;52.796;6.942;2023-02-28T00:32:13;10.32;;;6.53;;
52380;SDS011;38310;52.796;6.942;2023-02-28T00:34:38;9.93;;;6.57;;
52380;SDS011;38310;52.796;6.942;2023-02-28T00:37:08;11.25;;;6.25;;
52380;SDS011;38310;52.796;6.942;2023-02-28T00:39:37;13.85;;;6.55;;
52380;SDS011;38310;52.796;6.942;2023-02-28T00:42:03;9.77;;;6.97;;
52380;SDS011;38310;52.796;6.942;2023-02-28T00:44:30;9.10;;;6.65;;
52380;SDS011;38310;52.796;6.942;2023-02-28T00:46:56;12.13;;;6.00;;
52380;SDS011;38310;52.796;6.942;2023-02-28T00:49:22;9.43;;;6.55;;
52380;SDS011;38310;52.796;6.942;2023-02-28T00:51:48;10.57;;;6.57;;
52380;SDS011;38310;52.796;6.942;2023-02-28T00:54:15;10.27;;;6.65;;
52380;SDS011;38310;52.796;6.942;2023-02-28T00:56:41;9.98;;;6.20;;
52380;SDS011;38310;52.796;6.942;2023-02-28T00:59:07;10.70;;;7.13;;
52380;SDS011;38310;52.796;6.942;2023-02-28T01:01:33;10.95;;;7.28;;
52380;SDS011;38310;52.796;6.942;2023-02-28T01:03:59;11.57;;;6.45;;
52380;SDS011;38310;52.796;6.942;2023-02-28T01:06:24;10.05;;;6.20;;
52380;SDS011;38310;52.796;6.942;2023-02-28T01:08:50;8.63;;;5.70;;
52380;SDS011;38310;52.796;6.942;2023-02-28T01:11:16;10.63;;;6.10;;
52380;SDS011;38310;52.796;6.942;2023-02-28T01:13:43;12.73;;;6.38;;
52380;SDS011;38310;52.796;6.942;2023-02-28T01:16:10;9.02;;;6.65;;
52380;SDS011;38310;52.796;6.942;2023-02-28T01:18:36;8.88;;;6.50;;
52380;SDS011;38310;52.796;6.942;2023-02-28T01:21:03;11.55;;;6.97;;
52380;SDS011;38310;52.796;6.942;2023-02-28T01:23:30;13.27;;;6.68;;
52380;SDS011;38310;52.796;6.942;2023-02-28T01:25:56;12.40;;;6.72;;
52380;SDS011;38310;52.796;6.942;2023-02-28T01:28:21;10.05;;;6.82;;
52380;SDS011;38310;52.796;6.942;2023-02-28T01:30:48;9.88;;;6.22;;
52380;SDS011;38310;52.796;6.942;2023-02-28T01:33:14;13.73;;;6.70;;
52380;SDS011;38310;52.796;6.942;2023-02-28T01:35:39;8.68;;;6.40;;
52380;SDS011;38310;52.796;6.942;2023-02-28T01:38:05;11.23;;;6.72;;
52380;SDS011;38310;52.796;6.942;2023-02-28T01:40:31;11.68;;;7.07;;
52380;SDS011;38310;52.796;6.942;2023-02-28T01:42:57;9.65;;;6.82;;
52380;SDS011;38310;52.796;6.942;2023-02-28T01:45:27;11.60;;;6.72;;
52380;SDS011;38310;52.796;6.942;2023-02-28T01:47:59;13.35;;;7.85;;
52380;SDS011;38310;52.796;6.942;2023-02-28T01:50:34;11.50;;;6.90;;
52380;SDS011;38310;52.796;6.942;2023-02-28T01:53:07;10.98;;;7.20;;
52380;SDS011;38310;52.796;6.942;2023-02-28T01:55:36;9.30;;;6.22;;
52380;SDS011;38310;52.796;6.942;2023-02-28T01:58:04;11.15;;;7.45;;
52380;SDS011;38310;52.796;6.942;2023-02-28T02:00:31;9.30;;;7.15;;
52380;SDS011;38310;52.796;6.942;2023-02-28T02:03:05;10.82;;;7.05;;
52380;SDS011;38310;52.796;6.942;2023-02-28T02:05:34;11.65;;;7.50;;
52380;SDS011;38310;52.796;6.942;2023-02-28T02:08:04;11.80;;;7.22;;
52380;SDS011;38310;52.796;6.942;2023-02-28T02:10:34;10.80;;;7.40;;
52380;SDS011;38310;52.796;6.942;2023-02-28T02:27:29;15.95;;;8.48;;
52380;SDS011;38310;52.796;6.942;2023-02-28T02:30:12;12.15;;;8.95;;
52380;SDS011;38310;52.796;6.942;2023-02-28T02:36:04;14.32;;;9.15;;
52380;SDS011;38310;52.796;6.942;2023-02-28T02:39:02;13.88;;;7.97;;
52380;SDS011;38310;52.796;6.942;2023-02-28T02:41:39;9.60;;;6.97;;
52380;SDS011;38310;52.796;6.942;2023-02-28T02:44:25;11.27;;;8.23;;
52380;SDS011;38310;52.796;6.942;2023-02-28T02:46:58;14.05;;;9.13;;
52380;SDS011;38310;52.796;6.942;2023-02-28T02:49:31;11.00;;;7.82;;
52380;SDS011;38310;52.796;6.942;2023-02-28T02:52:00;14.38;;;7.68;;
52380;SDS011;38310;52.796;6.942;2023-02-28T02:54:37;14.05;;;8.77;;
52380;SDS011;38310;52.796;6.942;2023-02-28T02:57:07;12.05;;;8.45;;
52380;SDS011;38310;52.796;6.942;2023-02-28T02:59:37;13.38;;;8.13;;
52380;SDS011;38310;52.796;6.942;2023-02-28T03:02:06;11.02;;;7.60;;
52380;SDS011;38310;52.796;6.942;2023-02-28T03:04:38;13.45;;;8.15;;
52380;SDS011;38310;52.796;6.942;2023-02-28T03:07:07;11.88;;;8.43;;
52380;SDS011;38310;52.796;6.942;2023-02-28T03:09:33;13.38;;;8.52;;
52380;SDS011;38310;52.796;6.942;2023-02-28T03:12:00;11.70;;;8.32;;
52380;SDS011;38310;52.796;6.942;2023-02-28T03:23:19;13.30;;;9.18;;
52380;SDS011;38310;52.796;6.942;2023-02-28T03:25:56;14.70;;;8.48;;
52380;SDS011;38310;52.796;6.942;2023-02-28T03:28:30;10.93;;;7.82;;
52380;SDS011;38310;52.796;6.942;2023-02-28T03:31:03;13.00;;;8.10;;
52380;SDS011;38310;52.796;6.942;2023-02-28T03:36:41;11.13;;;8.70;;
52380;SDS011;38310;52.796;6.942;2023-02-28T03:39:35;16.25;;;8.75;;
52380;SDS011;38310;52.796;6.942;2023-02-28T03:42:15;13.57;;;8.95;;
52380;SDS011;38310;52.796;6.942;2023-02-28T03:44:46;12.25;;;8.70;;
52380;SDS011;38310;52.796;6.942;2023-02-28T03:47:21;13.68;;;9.52;;
52380;SDS011;38310;52.796;6.942;2023-02-28T03:52:33;13.70;;;9.60;;
52380;SDS011;38310;52.796;6.942;2023-02-28T03:55:04;11.60;;;8.10;;
52380;SDS011;38310;52.796;6.942;2023-02-28T03:57:37;13.27;;;8.75;;
52380;SDS011;38310;52.796;6.942;2023-02-28T04:00:20;16.45;;;9.02;;
52380;SDS011;38310;52.796;6.942;2023-02-28T04:02:50;12.32;;;8.65;;
52380;SDS011;38310;52.796;6.942;2023-02-28T04:05:18;14.70;;;9.23;;
52380;SDS011;38310;52.796;6.942;2023-02-28T04:07:45;13.77;;;9.23;;
52380;SDS011;38310;52.796;6.942;2023-02-28T04:10:11;14.65;;;9.13;;
52380;SDS011;38310;52.796;6.942;2023-02-28T04:12:38;13.05;;;9.07;;
52380;SDS011;38310;52.796;6.942;2023-02-28T04:15:03;13.30;;;9.10;;
52380;SDS011;38310;52.796;6.942;2023-02-28T04:17:30;12.73;;;9.20;;
52380;SDS011;38310;52.796;6.942;2023-02-28T04:19:56;13.43;;;10.00;;
52380;SDS011;38310;52.796;6.942;2023-02-28T04:22:22;14.27;;;10.05;;
52380;SDS011;38310;52.796;6.942;2023-02-28T04:24:51;14.55;;;9.77;;
52380;SDS011;38310;52.796;6.942;2023-02-28T04:27:19;19.38;;;10.35;;
52380;SDS011;38310;52.796;6.942;2023-02-28T04:29:45;15.15;;;9.93;;
52380;SDS011;38310;52.796;6.942;2023-02-28T04:32:11;14.20;;;9.70;;
52380;SDS011;38310;52.796;6.942;2023-02-28T04:34:37;16.13;;;11.02;;
52380;SDS011;38310;52.796;6.942;2023-02-28T04:37:04;16.75;;;9.95;;
52380;SDS011;38310;52.796;6.942;2023-02-28T04:39:30;15.43;;;11.25;;
52380;SDS011;38310;52.796;6.942;2023-02-28T04:41:59;17.88;;;10.20;;
52380;SDS011;38310;52.796;6.942;2023-02-28T04:44:25;14.50;;;11.27;;
52380;SDS011;38310;52.796;6.942;2023-02-28T04:46:51;17.15;;;10.77;;
52380;SDS011;38310;52.796;6.942;2023-02-28T04:49:16;15.10;;;10.77;;
52380;SDS011;38310;52.796;6.942;2023-02-28T04:51:42;15.35;;;11.10;;
52380;SDS011;38310;52.796;6.942;2023-02-28T04:54:08;17.67;;;10.90;;
52380;SDS011;38310;52.796;6.942;2023-02-28T04:56:34;15.85;;;10.27;;
52380;SDS011;38310;52.796;6.942;2023-02-28T04:59:00;15.20;;;10.55;;
52380;SDS011;38310;52.796;6.942;2023-02-28T05:01:30;14.85;;;10.80;;
52380;SDS011;38310;52.796;6.942;2023-02-28T05:03:58;18.42;;;11.23;;
52380;SDS011;38310;52.796;6.942;2023-02-28T05:06:25;17.10;;;10.40;;
52380;SDS011;38310;52.796;6.942;2023-02-28T05:08:52;13.70;;;10.95;;
52380;SDS011;38310;52.796;6.942;2023-02-28T05:13:47;15.98;;;11.32;;
52380;SDS011;38310;52.796;6.942;2023-02-28T05:16:13;13.38;;;9.82;;
52380;SDS011;38310;52.796;6.942;2023-02-28T05:18:40;18.30;;;11.35;;
52380;SDS011;38310;52.796;6.942;2023-02-28T05:21:06;15.15;;;11.38;;
52380;SDS011;38310;52.796;6.942;2023-02-28T05:23:42;17.38;;;11.40;;
52380;SDS011;38310;52.796;6.942;2023-02-28T05:26:08;15.68;;;10.48;;
52380;SDS011;38310;52.796;6.942;2023-02-28T05:28:34;16.42;;;11.65;;
52380;SDS011;38310;52.796;6.942;2023-02-28T05:30:59;17.73;;;11.35;;
52380;SDS011;38310;52.796;6.942;2023-02-28T05:33:25;14.98;;;11.55;;
52380;SDS011;38310;52.796;6.942;2023-02-28T05:35:51;14.13;;;11.00;;
52380;SDS011;38310;52.796;6.942;2023-02-28T05:38:17;17.52;;;11.00;;
52380;SDS011;38310;52.796;6.942;2023-02-28T05:40:42;16.08;;;11.57;;
52380;SDS011;38310;52.796;6.942;2023-02-28T05:43:09;14.20;;;11.40;;
52380;SDS011;38310;52.796;6.942;2023-02-28T05:45:35;14.85;;;11.55;;
52380;SDS011;38310;52.796;6.942;2023-02-28T05:48:01;17.48;;;12.70;;
52380;SDS011;38310;52.796;6.942;2023-02-28T05:50:27;15.02;;;11.68;;
52380;SDS011;38310;52.796;6.942;2023-02-28T05:52:52;15.30;;;10.95;;
52380;SDS011;38310;52.796;6.942;2023-02-28T05:55:18;17.20;;;11.60;;
52380;SDS011;38310;52.796;6.942;2023-02-28T05:57:44;16.23;;;11.90;;
52380;SDS011;38310;52.796;6.942;2023-02-28T06:00:10;14.55;;;10.88;;
52380;SDS011;38310;52.796;6.942;2023-02-28T06:02:37;15.48;;;11.88;;
52380;SDS011;38310;52.796;6.942;2023-02-28T06:05:05;15.60;;;11.80;;
52380;SDS011;38310;52.796;6.942;2023-02-28T06:07:37;15.63;;;10.77;;
52380;SDS011;38310;52.796;6.942;2023-02-28T06:10:03;19.42;;;12.15;;
52380;SDS011;38310;52.796;6.942;2023-02-28T06:12:29;17.70;;;11.35;;
52380;SDS011;38310;52.796;6.942;2023-02-28T06:14:55;17.27;;;10.30;;
52380;SDS011;38310;52.796;6.942;2023-02-28T06:17:20;16.50;;;11.00;;
52380;SDS011;38310;52.796;6.942;2023-02-28T06:19:46;13.13;;;11.27;;
52380;SDS011;38310;52.796;6.942;2023-02-28T06:22:13;14.77;;;11.48;;
52380;SDS011;38310;52.796;6.942;2023-02-28T06:24:38;16.52;;;11.77;;
52380;SDS011;38310;52.796;6.942;2023-02-28T06:27:04;17.98;;;13.00;;
52380;SDS011;38310;52.796;6.942;2023-02-28T06:29:31;14.25;;;10.40;;
52380;SDS011;38310;52.796;6.942;2023-02-28T06:31:57;13.75;;;11.07;;
52380;SDS011;38310;52.796;6.942;2023-02-28T06:34:23;14.45;;;10.82;;
52380;SDS011;38310;52.796;6.942;2023-02-28T06:36:49;14.38;;;11.15;;
52380;SDS011;38310;52.796;6.942;2023-02-28T06:39:16;17.83;;;11.90;;
52380;SDS011;38310;52.796;6.942;2023-02-28T06:41:42;14.65;;;11.23;;
52380;SDS011;38310;52.796;6.942;2023-02-28T06:44:20;14.98;;;11.40;;
52380;SDS011;38310;52.796;6.942;2023-02-28T06:46:46;18.52;;;13.27;;
52380;SDS011;38310;52.796;6.942;2023-02-28T06:49:12;15.68;;;10.60;;
52380;SDS011;38310;52.796;6.942;2023-02-28T06:51:40;16.13;;;12.60;;
52380;SDS011;38310;52.796;6.942;2023-02-28T06:54:10;16.60;;;12.70;;
52380;SDS011;38310;52.796;6.942;2023-02-28T06:56:36;16.25;;;12.25;;
52380;SDS011;38310;52.796;6.942;2023-02-28T06:59:02;18.48;;;12.65;;
52380;SDS011;38310;52.796;6.942;2023-02-28T07:01:29;15.73;;;11.82;;
52380;SDS011;38310;52.796;6.942;2023-02-28T07:03:57;17.02;;;12.77;;
52380;SDS011;38310;52.796;6.942;2023-02-28T07:06:25;17.85;;;11.70;;
52380;SDS011;38310;52.796;6.942;2023-02-28T07:08:52;13.93;;;12.13;;
52380;SDS011;38310;52.796;6.942;2023-02-28T07:11:19;16.05;;;12.48;;
52380;SDS011;38310;52.796;6.942;2023-02-28T07:13:50;16.48;;;12.75;;
52380;SDS011;38310;52.796;6.942;2023-02-28T07:16:17;14.93;;;11.65;;
52380;SDS011;38310;52.796;6.942;2023-02-28T07:18:43;15.82;;;12.02;;
52380;SDS011;38310;52.796;6.942;2023-02-28T07:21:09;16.02;;;11.25;;
52380;SDS011;38310;52.796;6.942;2023-02-28T07:23:35;16.63;;;11.98;;
52380;SDS011;38310;52.796;6.942;2023-02-28T07:26:03;15.82;;;11.50;;
52380;SDS011;38310;52.796;6.942;2023-02-28T07:28:30;15.10;;;11.90;;
52380;SDS011;38310;52.796;6.942;2023-02-28T07:30:56;15.07;;;12.38;;
52380;SDS011;38310;52.796;6.942;2023-02-28T07:33:21;15.07;;;12.25;;
52380;SDS011;38310;52.796;6.942;2023-02-28T07:35:48;15.90;;;12.50;;
52380;SDS011;38310;52.796;6.942;2023-02-28T07:38:14;15.23;;;12.32;;
52380;SDS011;38310;52.796;6.942;2023-02-28T07:40:40;16.25;;;12.68;;
52380;SDS011;38310;52.796;6.942;2023-02-28T07:43:06;13.95;;;11.40;;
52380;SDS011;38310;52.796;6.942;2023-02-28T07:45:32;16.15;;;12.10;;
52380;SDS011;38310;52.796;6.942;2023-02-28T07:47:59;16.95;;;12.95;;
52380;SDS011;38310;52.796;6.942;2023-02-28T07:50:28;14.38;;;11.60;;
52380;SDS011;38310;52.796;6.942;2023-02-28T07:53:00;17.13;;;12.98;;
52380;SDS011;38310;52.796;6.942;2023-02-28T07:55:26;15.07;;;11.77;;
52380;SDS011;38310;52.796;6.942;2023-02-28T07:57:52;18.02;;;12.35;;
52380;SDS011;38310;52.796;6.942;2023-02-28T08:00:17;15.48;;;12.60;;
52380;SDS011;38310;52.796;6.942;2023-02-28T08:02:43;18.15;;;12.30;;
52380;SDS011;38310;52.796;6.942;2023-02-28T08:05:09;14.40;;;11.35;;
52380;SDS011;38310;52.796;6.942;2023-02-28T08:07:35;14.65;;;11.52;;
52380;SDS011;38310;52.796;6.942;2023-02-28T08:10:01;15.75;;;12.57;;
52380;SDS011;38310;52.796;6.942;2023-02-28T08:12:26;13.27;;;11.90;;
52380;SDS011;38310;52.796;6.942;2023-02-28T08:14:52;18.65;;;12.45;;
52380;SDS011;38310;52.796;6.942;2023-02-28T08:17:18;15.05;;;11.60;;
52380;SDS011;38310;52.796;6.942;2023-02-28T08:19:46;12.35;;;10.45;;
52380;SDS011;38310;52.796;6.942;2023-02-28T08:22:12;11.00;;;9.82;;
52380;SDS011;38310;52.796;6.942;2023-02-28T08:24:38;11.25;;;8.68;;
52380;SDS011;38310;52.796;6.942;2023-02-28T08:27:07;9.48;;;7.88;;
52380;SDS011;38310;52.796;6.942;2023-02-28T08:29:33;11.48;;;7.80;;
52380;SDS011;38310;52.796;6.942;2023-02-28T08:32:01;10.88;;;9.13;;
52380;SDS011;38310;52.796;6.942;2023-02-28T08:34:27;10.70;;;8.55;;
52380;SDS011;38310;52.796;6.942;2023-02-28T08:36:52;13.20;;;8.70;;
52380;SDS011;38310;52.796;6.942;2023-02-28T08:39:18;13.45;;;9.18;;
52380;SDS011;38310;52.796;6.942;2023-02-28T08:41:45;12.93;;;9.73;;
52380;SDS011;38310;52.796;6.942;2023-02-28T08:44:10;14.27;;;9.95;;
52380;SDS011;38310;52.796;6.942;2023-02-28T08:46:36;13.60;;;10.90;;
52380;SDS011;38310;52.796;6.942;2023-02-28T08:49:03;13.77;;;10.15;;
52380;SDS011;38310;52.796;6.942;2023-02-28T08:51:29;17.33;;;10.82;;
52380;SDS011;38310;52.796;6.942;2023-02-28T08:53:57;14.27;;;10.40;;
52380;SDS011;38310;52.796;6.942;2023-02-28T08:56:25;13.55;;;9.90;;
52380;SDS011;38310;52.796;6.942;2023-02-28T08:58:53;13.63;;;11.38;;
52380;SDS011;38310;52.796;6.942;2023-02-28T09:01:24;15.38;;;11.10;;
52380;SDS011;38310;52.796;6.942;2023-02-28T09:03:55;11.93;;;10.70;;
52380;SDS011;38310;52.796;6.942;2023-02-28T09:06:22;14.60;;;11.48;;
52380;SDS011;38310;52.796;6.942;2023-02-28T09:08:49;12.40;;;10.52;;
52380;SDS011;38310;52.796;6.942;2023-02-28T09:11:16;12.38;;;10.85;;
52380;SDS011;38310;52.796;6.942;2023-02-28T09:13:41;12.25;;;10.40;;
52380;SDS011;38310;52.796;6.942;2023-02-28T09:16:08;12.65;;;10.63;;
52380;SDS011;38310;52.796;6.942;2023-02-28T09:18:37;12.45;;;9.80;;
52380;SDS011;38310;52.796;6.942;2023-02-28T09:21:07;11.57;;;9.77;;
52380;SDS011;38310;52.796;6.942;2023-02-28T09:23:36;12.30;;;9.48;;
52380;SDS011;38310;52.796;6.942;2023-02-28T09:26:03;11.70;;;9.40;;
52380;SDS011;38310;52.796;6.942;2023-02-28T09:28:30;10.93;;;9.35;;
52380;SDS011;38310;52.796;6.942;2023-02-28T09:30:55;11.45;;;8.35;;
52380;SDS011;38310;52.796;6.942;2023-02-28T09:33:24;11.07;;;7.68;;
52380;SDS011;38310;52.796;6.942;2023-02-28T09:35:50;10.18;;;7.15;;
52380;SDS011;38310;52.796;6.942;2023-02-28T09:38:22;5.90;;;5.22;;
52380;SDS011;38310;52.796;6.942;2023-02-28T09:40:55;9.88;;;5.35;;
52380;SDS011;38310;52.796;6.942;2023-02-28T09:43:25;6.78;;;5.50;;
52380;SDS011;38310;52.796;6.942;2023-02-28T09:48:47;6.43;;;4.55;;
52380;SDS011;38310;52.796;6.942;2023-02-28T09:53:55;10.65;;;4.47;;
52380;SDS011;38310;52.796;6.942;2023-02-28T09:56:24;6.28;;;4.28;;
52380;SDS011;38310;52.796;6.942;2023-02-28T09:59:10;5.63;;;3.97;;
52380;SDS011;38310;52.796;6.942;2023-02-28T10:04:38;4.47;;;3.85;;
52380;SDS011;38310;52.796;6.942;2023-02-28T10:07:13;6.18;;;3.40;;
52380;SDS011;38310;52.796;6.942;2023-02-28T10:10:01;7.18;;;3.40;;
52380;SDS011;38310;52.796;6.942;2023-02-28T10:12:32;6.57;;;4.18;;
52380;SDS011;38310;52.796;6.942;2023-02-28T10:14:58;4.88;;;3.70;;
52380;SDS011;38310;52.796;6.942;2023-02-28T10:17:28;4.63;;;3.47;;
52380;SDS011;38310;52.796;6.942;2023-02-28T10:20:09;7.05;;;4.00;;
52380;SDS011;38310;52.796;6.942;2023-02-28T10:25:33;5.25;;;3.55;;
52380;SDS011;38310;52.796;6.942;2023-02-28T10:30:43;5.60;;;3.53;;
52380;SDS011;38310;52.796;6.942;2023-02-28T10:33:27;6.95;;;4.10;;
52380;SDS011;38310;52.796;6.942;2023-02-28T10:35:55;4.90;;;4.05;;
52380;SDS011;38310;52.796;6.942;2023-02-28T10:38:26;5.65;;;3.53;;
52380;SDS011;38310;52.796;6.942;2023-02-28T10:44:20;4.07;;;3.17;;
52380;SDS011;38310;52.796;6.942;2023-02-28T10:46:47;5.10;;;3.30;;
52380;SDS011;38310;52.796;6.942;2023-02-28T10:49:17;4.95;;;3.17;;
52380;SDS011;38310;52.796;6.942;2023-02-28T10:51:46;4.32;;;3.15;;
52380;SDS011;38310;52.796;6.942;2023-02-28T10:54:26;4.53;;;3.00;;
52380;SDS011;38310;52.796;6.942;2023-02-28T10:59:32;5.38;;;3.50;;
52380;SDS011;38310;52.796;6.942;2023-02-28T11:01:57;7.63;;;3.65;;
52380;SDS011;38310;52.796;6.942;2023-02-28T11:07:05;4.88;;;3.15;;
52380;SDS011;38310;52.796;6.942;2023-02-28T11:09:44;3.55;;;2.90;;
52380;SDS011;38310;52.796;6.942;2023-02-28T11:15:06;3.90;;;2.40;;
52380;SDS011;38310;52.796;6.942;2023-02-28T11:17:54;4.35;;;2.67;;
52380;SDS011;38310;52.796;6.942;2023-02-28T11:20:47;3.25;;;2.70;;
52380;SDS011;38310;52.796;6.942;2023-02-28T11:23:17;5.13;;;3.00;;
52380;SDS011;38310;52.796;6.942;2023-02-28T11:25:49;4.07;;;2.60;;
52380;SDS011;38310;52.796;6.942;2023-02-28T11:33:44;3.65;;;2.83;;
52380;SDS011;38310;52.796;6.942;2023-02-28T11:38:53;3.60;;;2.60;;
52380;SDS011;38310;52.796;6.942;2023-02-28T11:41:30;4.65;;;2.92;;
52380;SDS011;38310;52.796;6.942;2023-02-28T11:44:29;4.25;;;2.72;;
52380;SDS011;38310;52.796;6.942;2023-02-28T11:47:20;3.38;;;2.50;;
52380;SDS011;38310;52.796;6.942;2023-02-28T12:05:43;3.60;;;2.50;;
52380;SDS011;38310;52.796;6.942;2023-02-28T12:17:03;3.25;;;2.63;;
52380;SDS011;38310;52.796;6.942;2023-02-28T12:27:39;9.35;;;3.70;;
52380;SDS011;38310;52.796;6.942;2023-02-28T12:33:04;4.53;;;2.78;;
52380;SDS011;38310;52.796;6.942;2023-02-28T12:35:35;4.75;;;2.90;;
52380;SDS011;38310;52.796;6.942;2023-02-28T12:38:05;5.22;;;3.15;;
52380;SDS011;38310;52.796;6.942;2023-02-28T12:41:01;4.72;;;3.17;;
52380;SDS011;38310;52.796;6.942;2023-02-28T12:43:36;3.83;;;2.80;;
52380;SDS011;38310;52.796;6.942;2023-02-28T12:48:44;3.55;;;2.90;;
52380;SDS011;38310;52.796;6.942;2023-02-28T12:51:13;4.13;;;2.83;;
52380;SDS011;38310;52.796;6.942;2023-02-28T12:59:09;4.25;;;3.17;;
52380;SDS011;38310;52.796;6.942;2023-02-28T13:07:32;3.78;;;2.67;;
52380;SDS011;38310;52.796;6.942;2023-02-28T13:10:17;5.43;;;2.65;;
52380;SDS011;38310;52.796;6.942;2023-02-28T13:12:47;5.45;;;3.08;;
52380;SDS011;38310;52.796;6.942;2023-02-28T13:15:19;2.95;;;2.47;;
52380;SDS011;38310;52.796;6.942;2023-02-28T13:17:53;6.07;;;2.92;;
52380;SDS011;38310;52.796;6.942;2023-02-28T13:20:25;3.35;;;2.33;;
52380;SDS011;38310;52.796;6.942;2023-02-28T13:22:52;5.18;;;2.50;;
52380;SDS011;38310;52.796;6.942;2023-02-28T13:28:11;3.10;;;2.13;;
52380;SDS011;38310;52.796;6.942;2023-02-28T13:36:00;2.72;;;2.38;;
52380;SDS011;38310;52.796;6.942;2023-02-28T14:05:42;3.45;;;2.50;;
52380;SDS011;38310;52.796;6.942;2023-02-28T14:08:19;4.05;;;2.30;;
52380;SDS011;38310;52.796;6.942;2023-02-28T14:10:48;3.90;;;2.42;;
52380;SDS011;38310;52.796;6.942;2023-02-28T14:16:15;4.60;;;2.38;;
52380;SDS011;38310;52.796;6.942;2023-02-28T14:19:01;3.85;;;1.92;;
52380;SDS011;38310;52.796;6.942;2023-02-28T14:21:38;3.35;;;2.40;;
52380;SDS011;38310;52.796;6.942;2023-02-28T14:32:41;3.53;;;2.50;;
52380;SDS011;38310;52.796;6.942;2023-02-28T14:35:13;3.35;;;3.05;;
52380;SDS011;38310;52.796;6.942;2023-02-28T14:37:47;3.05;;;2.38;;
52380;SDS011;38310;52.796;6.942;2023-02-28T14:40:32;4.05;;;2.22;;
52380;SDS011;38310;52.796;6.942;2023-02-28T14:43:03;4.38;;;2.63;;
52380;SDS011;38310;52.796;6.942;2023-02-28T14:45:41;3.72;;;2.53;;
52380;SDS011;38310;52.796;6.942;2023-02-28T14:48:09;4.13;;;2.90;;
52380;SDS011;38310;52.796;6.942;2023-02-28T14:50:36;4.70;;;2.88;;
52380;SDS011;38310;52.796;6.942;2023-02-28T14:53:02;5.45;;;2.72;;
52380;SDS011;38310;52.796;6.942;2023-02-28T14:55:30;4.60;;;2.90;;
52380;SDS011;38310;52.796;6.942;2023-02-28T14:57:58;5.40;;;2.65;;
52380;SDS011;38310;52.796;6.942;2023-02-28T15:00:32;4.88;;;3.28;;
52380;SDS011;38310;52.796;6.942;2023-02-28T15:02:59;3.65;;;2.70;;
52380;SDS011;38310;52.796;6.942;2023-02-28T15:05:37;4.70;;;2.83;;
52380;SDS011;38310;52.796;6.942;2023-02-28T15:08:12;3.67;;;2.67;;
52380;SDS011;38310;52.796;6.942;2023-02-28T15:11:03;5.93;;;3.35;;
52380;SDS011;38310;52.796;6.942;2023-02-28T15:13:34;4.15;;;3.58;;
52380;SDS011;38310;52.796;6.942;2023-02-28T15:16:04;3.28;;;2.60;;
52380;SDS011;38310;52.796;6.942;2023-02-28T15:21:21;4.70;;;2.70;;
52380;SDS011;38310;52.796;6.942;2023-02-28T15:23:51;3.65;;;2.65;;
52380;SDS011;38310;52.796;6.942;2023-02-28T15:26:19;3.70;;;2.85;;
52380;SDS011;38310;52.796;6.942;2023-02-28T15:29:22;4.13;;;3.08;;
52380;SDS011;38310;52.796;6.942;2023-02-28T15:31:49;4.80;;;3.13;;
52380;SDS011;38310;52.796;6.942;2023-02-28T15:34:18;4.28;;;2.72;;
52380;SDS011;38310;52.796;6.942;2023-02-28T15:36:46;3.90;;;2.80;;
52380;SDS011;38310;52.796;6.942;2023-02-28T15:39:23;4.10;;;3.20;;
52380;SDS011;38310;52.796;6.942;2023-02-28T15:41:52;6.03;;;3.28;;
52380;SDS011;38310;52.796;6.942;2023-02-28T15:44:34;4.90;;;3.30;;
52380;SDS011;38310;52.796;6.942;2023-02-28T15:47:06;4.05;;;3.08;;
52380;SDS011;38310;52.796;6.942;2023-02-28T15:49:48;5.85;;;3.33;;
52380;SDS011;38310;52.796;6.942;2023-02-28T15:52:18;6.22;;;3.80;;
52380;SDS011;38310;52.796;6.942;2023-02-28T15:54:47;4.45;;;3.20;;
52380;SDS011;38310;52.796;6.942;2023-02-28T15:57:18;5.43;;;3.58;;
52380;SDS011;38310;52.796;6.942;2023-02-28T15:59:51;4.22;;;3.35;;
52380;SDS011;38310;52.796;6.942;2023-02-28T16:02:36;4.90;;;3.17;;
52380;SDS011;38310;52.796;6.942;2023-02-28T16:07:31;3.97;;;3.10;;
52380;SDS011;38310;52.796;6.942;2023-02-28T16:09:58;4.28;;;3.50;;
52380;SDS011;38310;52.796;6.942;2023-02-28T16:12:29;4.97;;;3.70;;
52380;SDS011;38310;52.796;6.942;2023-02-28T16:14:58;6.47;;;3.60;;
52380;SDS011;38310;52.796;6.942;2023-02-28T16:17:32;6.93;;;3.63;;
52380;SDS011;38310;52.796;6.942;2023-02-28T16:19:59;6.78;;;3.72;;
52380;SDS011;38310;52.796;6.942;2023-02-28T16:22:25;5.28;;;3.65;;
52380;SDS011;38310;52.796;6.942;2023-02-28T16:24:51;6.32;;;3.83;;
52380;SDS011;38310;52.796;6.942;2023-02-28T16:27:21;4.70;;;3.72;;
52380;SDS011;38310;52.796;6.942;2023-02-28T16:29:54;4.25;;;3.40;;
52380;SDS011;38310;52.796;6.942;2023-02-28T16:32:20;4.13;;;3.30;;
52380;SDS011;38310;52.796;6.942;2023-02-28T16:34:45;4.78;;;3.50;;
52380;SDS011;38310;52.796;6.942;2023-02-28T16:37:12;4.93;;;3.78;;
52380;SDS011;38310;52.796;6.942;2023-02-28T16:39:40;4.40;;;3.67;;
52380;SDS011;38310;52.796;6.942;2023-02-28T16:42:08;4.57;;;3.83;;
52380;SDS011;38310;52.796;6.942;2023-02-28T16:44:50;4.57;;;3.87;;
52380;SDS011;38310;52.796;6.942;2023-02-28T16:47:17;4.78;;;3.78;;
52380;SDS011;38310;52.796;6.942;2023-02-28T16:49:43;5.93;;;3.83;;
52380;SDS011;38310;52.796;6.942;2023-02-28T16:52:11;5.78;;;4.00;;
52380;SDS011;38310;52.796;6.942;2023-02-28T16:54:38;6.70;;;4.28;;
52380;SDS011;38310;52.796;6.942;2023-02-28T16:57:04;5.15;;;3.55;;
52380;SDS011;38310;52.796;6.942;2023-02-28T16:59:31;5.18;;;3.50;;
52380;SDS011;38310;52.796;6.942;2023-02-28T17:01:57;5.30;;;3.55;;
52380;SDS011;38310;52.796;6.942;2023-02-28T17:04:26;5.60;;;3.50;;
52380;SDS011;38310;52.796;6.942;2023-02-28T17:06:52;5.40;;;4.00;;
52380;SDS011;38310;52.796;6.942;2023-02-28T17:09:19;5.35;;;3.97;;
52380;SDS011;38310;52.796;6.942;2023-02-28T17:11:46;5.07;;;3.95;;
52380;SDS011;38310;52.796;6.942;2023-02-28T17:14:12;4.43;;;3.38;;
52380;SDS011;38310;52.796;6.942;2023-02-28T17:16:38;4.70;;;3.95;;
52380;SDS011;38310;52.796;6.942;2023-02-28T17:19:14;4.88;;;3.83;;
52380;SDS011;38310;52.796;6.942;2023-02-28T17:21:40;5.72;;;3.90;;
52380;SDS011;38310;52.796;6.942;2023-02-28T17:24:07;4.82;;;3.88;;
52380;SDS011;38310;52.796;6.942;2023-02-28T17:26:33;4.82;;;3.72;;
52380;SDS011;38310;52.796;6.942;2023-02-28T17:28:59;5.55;;;4.00;;
52380;SDS011;38310;52.796;6.942;2023-02-28T17:31:26;5.65;;;4.00;;
52380;SDS011;38310;52.796;6.942;2023-02-28T17:33:52;5.72;;;4.35;;
52380;SDS011;38310;52.796;6.942;2023-02-28T17:36:21;5.72;;;4.10;;
52380;SDS011;38310;52.796;6.942;2023-02-28T17:38:49;5.93;;;3.95;;